createdAt,value
2018-02-01T00:00:59.116Z,1.30
2018-02-01T00:06:01.895Z,1.30
2018-02-01T00:11:04.808Z,1.40
2018-02-01T00:16:07.583Z,1.23
2018-02-01T00:21:11.161Z,1.20
2018-02-01T00:26:13.905Z,1.20
2018-02-01T00:31:17.228Z,1.30
2018-02-01T00:36:20.718Z,1.30
2018-02-01T00:41:23.509Z,1.10
2018-02-01T00:46:27.038Z,1.50
2018-02-01T00:51:32.213Z,1.40
2018-02-01T00:56:35.195Z,1.17
2018-02-01T01:01:38.756Z,1.10
2018-02-01T01:06:41.498Z,1.00
2018-02-01T01:11:46.037Z,1.30
2018-02-01T01:16:49.805Z,1.10
2018-02-01T01:21:52.580Z,1.05
2018-02-01T01:26:55.328Z,1.30
2018-02-01T01:31:58.064Z,1.20
2018-02-01T01:37:01.567Z,1.20
2018-02-01T01:42:05.081Z,1.30
2018-02-01T01:47:08.936Z,1.20
2018-02-01T01:52:11.704Z,1.33
2018-02-01T01:57:15.236Z,1.43
2018-02-01T02:02:18.021Z,1.70
2018-02-01T02:07:21.535Z,1.15
2018-02-01T02:12:29.725Z,0.90
2018-02-01T02:17:32.984Z,0.90
2018-02-01T02:22:36.798Z,0.90
2018-02-01T02:27:40.173Z,0.90
2018-02-01T02:32:44.360Z,1.30
2018-02-01T02:37:47.609Z,1.10
2018-02-01T02:42:50.928Z,1.10
2018-02-01T02:47:54.146Z,1.40
2018-02-01T02:52:58.207Z,1.50
2018-02-01T02:58:00.998Z,1.20
2018-02-01T03:03:04.975Z,1.50
2018-02-01T03:08:07.741Z,1.50
2018-02-01T03:13:10.516Z,1.40
2018-02-01T03:18:15.939Z,2.50
2018-02-01T03:23:18.696Z,2.10
2018-02-01T03:28:21.487Z,1.90
2018-02-01T03:33:24.227Z,2.10
2018-02-01T03:38:26.952Z,2.25
2018-02-01T03:43:29.693Z,2.33
2018-02-01T03:48:32.479Z,2.60
2018-02-01T03:53:35.257Z,2.70
2018-02-01T03:58:38.862Z,3.00
2018-02-01T04:03:41.611Z,2.62
2018-02-01T04:08:44.353Z,2.60
2018-02-01T04:13:47.106Z,2.50
2018-02-01T04:18:49.884Z,3.10
2018-02-01T04:23:52.735Z,3.10
2018-02-01T04:28:57.871Z,3.15
2018-02-01T04:34:00.669Z,3.15
2018-02-01T04:39:03.520Z,2.50
2018-02-01T04:44:07.112Z,2.70
2018-02-01T04:49:09.899Z,2.60
2018-02-01T04:54:12.785Z,2.80
2018-02-01T04:59:15.540Z,2.40
2018-02-01T05:04:19.084Z,2.60
2018-02-01T05:09:22.332Z,2.90
2018-02-01T05:14:25.545Z,3.10
2018-02-01T05:19:28.299Z,3.60
2018-02-01T05:24:31.051Z,3.10
2018-02-01T05:29:33.800Z,2.95
2018-02-01T05:34:36.618Z,3.70
2018-02-01T05:39:39.701Z,3.92
2018-02-01T05:44:43.252Z,6.30
2018-02-01T05:49:46.066Z,3.50
2018-02-01T05:54:48.832Z,8.30
2018-02-01T05:59:51.601Z,19.30
2018-02-01T06:04:54.402Z,20.08
2018-02-01T06:09:57.147Z,21.50
2018-02-01T06:14:59.983Z,16.75
2018-02-01T06:20:02.777Z,9.30
2018-02-01T06:25:05.551Z,4.10
2018-02-01T06:30:08.380Z,10.23
2018-02-01T06:35:11.353Z,4.60
2018-02-01T06:40:14.181Z,5.53
2018-02-01T06:45:18.692Z,5.50
2018-02-01T06:50:21.461Z,6.30
2018-02-01T06:55:24.215Z,6.53
2018-02-01T07:00:28.824Z,7.37
2018-02-01T07:05:31.655Z,8.40
2018-02-01T07:10:34.607Z,8.70
2018-02-01T07:15:37.455Z,8.90
2018-02-01T07:20:43.563Z,8.45
2018-02-01T07:25:46.471Z,9.00
2018-02-01T07:30:49.330Z,8.45
2018-02-01T07:35:53.121Z,7.75
2018-02-01T07:40:55.886Z,8.30
2018-02-01T07:45:58.783Z,7.70
2018-02-01T07:51:01.827Z,7.60
2018-02-01T07:56:04.587Z,6.60
2018-02-01T08:01:07.460Z,6.87
2018-02-01T08:06:12.102Z,5.85
2018-02-01T08:11:15.122Z,5.60
2018-02-01T08:16:18.799Z,5.50
2018-02-01T08:21:21.587Z,4.80
2018-02-01T08:26:24.389Z,4.95
2018-02-01T08:31:27.243Z,5.40
2018-02-01T08:36:30.049Z,4.55
2018-02-01T08:41:33.087Z,4.10
2018-02-01T08:46:35.866Z,4.00
2018-02-01T08:51:38.644Z,3.22
2018-02-01T08:56:41.548Z,3.20
2018-02-01T09:01:44.399Z,3.10
2018-02-01T09:06:47.172Z,3.33
2018-02-01T09:11:49.920Z,3.33
2018-02-01T09:16:52.702Z,2.60
2018-02-01T09:21:55.496Z,2.10
2018-02-01T09:27:00.995Z,2.42
2018-02-01T09:32:03.906Z,2.20
2018-02-01T09:37:07.694Z,2.20
2018-02-01T09:42:10.479Z,2.60
2018-02-01T09:47:13.991Z,2.40
2018-02-01T09:52:16.762Z,2.10
2018-02-01T09:57:20.498Z,1.60
2018-02-01T10:02:23.808Z,2.25
2018-02-01T10:07:27.723Z,2.20
2018-02-01T10:12:30.488Z,2.40
2018-02-01T10:17:33.278Z,2.30
2018-02-01T10:22:36.833Z,2.30
2018-02-01T10:27:39.659Z,2.47
2018-02-01T10:32:43.197Z,2.40
2018-02-01T10:37:45.997Z,2.30
2018-02-01T10:42:49.533Z,2.15
2018-02-01T10:47:52.280Z,2.50
2018-02-01T10:52:55.131Z,1.77
2018-02-01T10:57:58.048Z,2.28
2018-02-01T11:03:00.841Z,1.90
2018-02-01T11:08:03.640Z,2.10
2018-02-01T11:13:06.445Z,2.20
2018-02-01T11:18:09.272Z,2.15
2018-02-01T11:23:12.059Z,2.00
2018-02-01T11:28:15.056Z,2.40
2018-02-01T11:33:18.638Z,2.40
2018-02-01T11:38:21.657Z,2.70
2018-02-01T11:43:24.856Z,2.50
2018-02-01T11:48:28.569Z,1.87
2018-02-01T11:53:32.092Z,2.10
2018-02-01T11:58:35.617Z,2.10
2018-02-01T12:03:38.395Z,2.33
2018-02-01T12:08:42.327Z,2.40
2018-02-01T12:13:45.859Z,2.10
2018-02-01T12:18:48.640Z,2.20
2018-02-01T12:23:52.218Z,2.33
2018-02-01T12:28:55.066Z,2.10
2018-02-01T12:33:57.868Z,1.70
2018-02-01T12:39:00.627Z,1.70
2018-02-01T12:44:03.407Z,2.63
2018-02-01T12:49:06.200Z,2.20
2018-02-01T12:54:09.724Z,1.80
2018-02-01T12:59:12.501Z,2.25
2018-02-01T13:04:15.299Z,2.20
2018-02-01T13:09:18.086Z,2.05
2018-02-01T13:14:20.860Z,2.62
2018-02-01T13:19:24.452Z,1.90
2018-02-01T13:24:27.220Z,2.20
2018-02-01T13:29:30.058Z,2.17
2018-02-01T13:34:32.950Z,2.13
2018-02-01T13:39:36.458Z,2.50
2018-02-01T13:44:40.885Z,1.98
2018-02-01T13:49:44.237Z,2.20
2018-02-01T13:54:47.816Z,2.50
2018-02-01T13:59:51.203Z,2.40
2018-02-01T14:05:03.795Z,2.62
2018-02-01T14:10:06.767Z,2.50
2018-02-01T14:15:10.493Z,2.37
2018-02-01T14:20:13.418Z,2.00
2018-02-01T14:25:17.034Z,2.30
2018-02-01T14:30:20.631Z,3.70
2018-02-01T14:35:23.417Z,4.12
2018-02-01T14:40:26.424Z,2.80
2018-02-01T14:45:29.228Z,2.40
2018-02-01T14:50:32.091Z,3.50
2018-02-01T14:55:34.981Z,2.40
2018-02-01T15:00:37.787Z,2.63
2018-02-01T15:05:40.647Z,2.50
2018-02-01T15:10:45.696Z,3.27
2018-02-01T15:15:48.538Z,2.22
2018-02-01T15:20:52.862Z,2.30
2018-02-01T15:25:55.943Z,2.25
2018-02-01T15:30:59.497Z,2.60
2018-02-01T15:36:04.346Z,2.08
2018-02-01T15:41:07.917Z,2.20
2018-02-01T15:46:11.516Z,3.25
2018-02-01T15:51:18.044Z,2.90
2018-02-01T15:56:21.412Z,2.62
2018-02-01T16:01:24.825Z,2.08
2018-02-01T16:06:28.445Z,2.30
2018-02-01T16:11:31.242Z,2.30
2018-02-01T16:16:34.059Z,2.50
2018-02-01T16:21:36.876Z,2.40
2018-02-01T16:26:39.728Z,2.70
2018-02-01T16:31:43.361Z,2.30
2018-02-01T16:36:46.179Z,2.90
2018-02-01T16:41:48.997Z,2.30
2018-02-01T16:46:52.746Z,2.00
2018-02-01T16:51:57.885Z,2.45
2018-02-01T16:57:00.721Z,2.53
2018-02-01T17:02:03.588Z,2.37
2018-02-01T17:07:06.441Z,1.80
2018-02-01T17:12:09.237Z,1.85
2018-02-01T17:17:13.222Z,1.50
2018-02-01T17:22:16.004Z,1.80
2018-02-01T17:27:18.812Z,1.70
2018-02-01T17:32:24.933Z,1.70
2018-02-01T17:37:27.809Z,1.80
2018-02-01T17:42:30.634Z,2.40
2018-02-01T17:47:33.436Z,2.30
2018-02-01T17:52:37.422Z,2.37
2018-02-01T17:57:40.218Z,2.10
2018-02-01T18:02:43.015Z,2.20
2018-02-01T18:07:45.840Z,3.30
2018-02-01T18:12:48.641Z,4.28
2018-02-01T18:17:51.531Z,4.97
2018-02-01T18:22:54.373Z,3.12
2018-02-01T18:27:58.206Z,2.50
2018-02-01T18:33:01.753Z,3.08
2018-02-01T18:38:04.555Z,2.30
2018-02-01T18:43:07.407Z,2.40
2018-02-01T18:48:10.295Z,1.90
2018-02-01T18:53:13.153Z,1.80
2018-02-01T18:58:15.944Z,1.60
2018-02-01T19:03:20.376Z,1.60
2018-02-01T19:08:23.180Z,2.53
2018-02-01T19:13:25.976Z,1.55
2018-02-01T19:18:29.385Z,1.30
2018-02-01T19:23:32.754Z,1.58
2018-02-01T19:28:35.614Z,1.52
2018-02-01T19:33:38.392Z,1.67
2018-02-01T19:38:41.179Z,1.80
2018-02-01T19:43:44.755Z,2.10
2018-02-01T19:48:47.551Z,2.00
2018-02-01T19:53:50.329Z,1.92
2018-02-01T19:58:53.977Z,2.40
2018-02-01T20:03:56.852Z,2.40
2018-02-01T20:08:59.658Z,2.50
2018-02-01T20:14:02.424Z,2.40
2018-02-01T20:19:07.672Z,3.20
2018-02-01T20:24:10.780Z,3.00
2018-02-01T20:29:15.249Z,2.70
2018-02-01T20:34:18.040Z,4.30
2018-02-01T20:39:20.859Z,5.07
2018-02-01T20:44:23.621Z,7.35
2018-02-01T20:49:27.004Z,7.28
2018-02-01T20:54:31.043Z,5.80
2018-02-01T20:59:36.004Z,4.80
2018-02-01T21:04:41.909Z,3.60
2018-02-01T21:09:44.729Z,4.70
2018-02-01T21:14:47.539Z,5.10
2018-02-01T21:19:50.323Z,5.03
2018-02-01T21:24:53.124Z,4.25
2018-02-01T21:29:55.935Z,3.90
2018-02-01T21:34:58.780Z,3.77
2018-02-01T21:40:01.597Z,4.10
2018-02-01T21:45:04.434Z,3.70
2018-02-01T21:50:08.053Z,3.90
2018-02-01T21:55:10.838Z,4.85
2018-02-01T22:00:13.650Z,4.50
2018-02-01T22:05:16.450Z,5.70
2018-02-01T22:10:20.001Z,6.32
2018-02-01T22:15:22.807Z,7.15
2018-02-01T22:20:25.616Z,7.25
2018-02-01T22:25:28.514Z,8.32
2018-02-01T22:30:31.328Z,8.20
2018-02-01T22:35:34.188Z,8.88
2018-02-01T22:40:36.984Z,9.20
2018-02-01T22:45:39.760Z,9.93
2018-02-01T22:50:42.551Z,8.80
2018-02-01T22:55:45.816Z,8.20
2018-02-01T23:00:48.983Z,8.30
2018-02-01T23:05:53.389Z,7.90
2018-02-01T23:10:56.702Z,7.18
2018-02-01T23:15:59.955Z,6.70
2018-02-01T23:21:03.496Z,7.50
2018-02-01T23:26:07.865Z,7.10
2018-02-01T23:31:10.817Z,8.30
2018-02-01T23:36:13.628Z,7.60
2018-02-01T23:41:16.429Z,7.40
2018-02-01T23:46:19.241Z,8.10
2018-02-01T23:51:22.233Z,8.00
2018-02-01T23:56:25.031Z,8.20
